x

South Brooks (46132) Wave Buoy

9:00 - Sat 24th Jun 2017 All times are PDT. -7 hours from GMT.

  • Sig Wave height 4.3ft
  • Peak Period 17s
  • Wind
    13mph, 16mph gusts
  • Sea Temp 55°f
  • Luft Temp 57°f
  • Sea Pressure 1021.3mb
  • South Brooks
  • South Brooks

More Historic Weather Station data

Upgrade to MSW Pro to gain access to the past 30 days of data for over 8000 Wavebouys and Weather Stations around the globe.

Join Pro

Comparision Forecast

View Surf forecast
   
Sa 06/24 9:00 4.5ft 17s 13 16 mph 1021.3mb 55f 57f
8:00 4ft 17s 18 22 mph 1021.5mb 55f 56f
7:00 4ft 17s 18 22 mph 1021.4mb 55f 56f
6:00 4ft 17s 18 20 mph 1021.4mb 55f 57f
5:00 4ft 17s 16 18 mph 1021.3mb 55f 57f
4:00 3.5ft 17s 18 20 mph 1021.3mb 55f 57f
3:00 4ft 17s 16 18 mph 1021.6mb 55f 57f
2:00 4.5ft 17s 16 18 mph 1022mb 55f 57f
1:00 4.5ft 5s 16 18 mph 1022.2mb 55f 58f
12:00 4.5ft 17s 18 20 mph 1022.7mb 55f 57f
Fr 06/23 11:00 4.5ft 5s 18 20 mph 1022.7mb 55f 58f
10:00 4.5ft 17s 20 25 mph 1023mb 55f 58f
9:00 5ft 5s 22 25 mph 1023.2mb 55f 58f
8:00 5ft 5s 20 22 mph 1023.4mb 55f 58f
7:00 5ft 5s 22 25 mph 1023.6mb 55f 57f
6:00 4.5ft 5s 18 22 mph 1024.4mb 55f 57f
5:00 5ft 5s 18 20 mph 1024.4mb 55f 57f
4:00 5ft 5s 18 20 mph 1025mb 55f 56f
3:00 5ft 6s 18 22 mph 1025.2mb 55f 56f
2:00 5ft 5s 20 25 mph 1025.2mb 55f 56f
1:00 5ft 5s 20 25 mph 1025.1mb 55f 56f
12:00 5ft 5s 18 22 mph 1025.3mb 55f 56f
11:00 4.5ft 5s 18 25 mph 1025.1mb 55f 55f
10:00 5ft 18s 20 25 mph 1025.2mb 55f 55f
9:00 4.5ft 18s 20 25 mph 1025.4mb 55f 55f
8:00 5ft 5s 22 27 mph 1025.5mb 55f 55f
7:00 4.5ft 5s 20 25 mph 1025.2mb 55f 55f
6:00 5ft 5s 20 25 mph 1025.3mb 55f 55f
4:00 5ft 6s 20 25 mph 1025.4mb 55f 55f
3:00 5.5ft 5s 20 25 mph 1025.6mb 55f 55f
2:00 6ft 5s 25 29 mph 1025.7mb 55f 55f
1:00 6ft 6s 22 27 mph 1026mb 55f 55f
12:00 6.5ft 6s 22 27 mph 1026.1mb 55f 55f
Do 06/22 11:00 6ft 6s 22 27 mph 1026.2mb 55f 55f
10:00 6.5ft 6s 22 29 mph 1026.6mb 55f 55f
9:00 7ft 6s 22 27 mph 1026.5mb 55f 55f
8:00 6.5ft 6s 25 29 mph 1026.7mb 55f 55f
7:00 7ft 5s 25 29 mph 1027mb 55f 55f
6:00 6ft 8s 22 27 mph 1027mb 55f 55f
5:00 6ft 9s 22 27 mph 1027.4mb 55f 55f
4:00 6ft 8s 22 27 mph 1027.7mb 55f 55f
3:00 6ft 8s 20 27 mph 1027.9mb 55f 55f
2:00 6ft 8s 22 27 mph 1028mb 55f 55f
1:00 6ft 9s 22 27 mph 1027.9mb 55f 55f
12:00 6ft 10s 20 25 mph 1027.7mb 55f 54f
11:00 6.5ft 10s 22 27 mph 1028mb 55f 54f
10:00 6ft 10s 25 29 mph 1028mb 55f 54f
9:00 6ft 9s 25 27 mph 1028mb 55f 54f
8:00 6ft 10s 22 27 mph 1028.2mb 55f 54f
7:00 6.5ft 10s 20 25 mph 1028.2mb 55f 54f
6:00 6.5ft 10s 22 25 mph 1028mb 55f 54f
5:00 6.5ft 10s 22 27 mph 1028.4mb 55f 54f
4:00 7ft 10s 22 25 mph 1028.3mb 55f 54f
3:00 7ft 10s 22 27 mph 1028.6mb 55f 54f
2:00 7ft 10s 22 27 mph 1028.9mb 55f 54f
1:00 6.5ft 8s 22 27 mph 1028.8mb 55f 54f
12:00 7ft 10s 20 25 mph 1028.9mb 55f 54f
Mi 06/21 11:00 6.5ft 10s 22 27 mph 1028.8mb 55f 54f
10:00 7ft 9s 22 27 mph 1028.9mb 55f 54f
9:00 7ft 10s 20 25 mph 1028.8mb 55f 54f
8:00 7ft 10s 22 27 mph 1029.3mb 55f 55f
7:00 7ft 10s 20 25 mph 1029.4mb 55f 55f
6:00 7ft 10s 20 22 mph 1029.4mb 55f 55f
5:00 7ft 10s 18 22 mph 1030mb 55f 55f
4:00 7.5ft 9s 18 22 mph 1029.8mb 55f 55f
3:00 8ft 10s 18 20 mph 1030mb 55f 55f
2:00 7ft 10s 18 20 mph 1029.7mb 55f 55f
1:00 7ft 10s 16 20 mph 1029.5mb 55f 55f
12:00 7.5ft 9s 18 20 mph 1029.2mb 55f 55f
11:00 6.5ft 8s 16 20 mph 1029mb 55f 54f
10:00 7ft 9s 16 18 mph 1028.8mb 55f 54f
9:00 6.5ft 9s 16 20 mph 1028.7mb 55f 54f
8:00 6ft 9s 18 20 mph 1028.1mb 55f 54f
7:00 6ft 9s 18 22 mph 1027.6mb 55f 54f
6:00 6ft 9s 13 18 mph 1027.2mb 55f 54f
5:00 6ft 8s 18 20 mph 1027.2mb 55f 53f
4:00 6ft 10s 13 18 mph 1027.2mb 55f 54f
3:00 5.5ft 7s 16 18 mph 1027.1mb 55f 54f
2:00 5ft 6s 16 18 mph 1027mb 55f 54f
1:00 5ft 8s 13 18 mph 1026.8mb 55f 54f
12:00 5ft 8s 13 16 mph 1026.5mb 55f 54f
Di 06/20 11:00 5ft 6s 11 13 mph 1026.4mb 55f 54f
10:00 5ft 10s 11 13 mph 1026.3mb 55f 54f
9:00 5ft 10s 13 18 mph 1026.1mb 55f 54f
8:00 4.5ft 8s 13 18 mph 1026.3mb 55f 55f
7:00 4.5ft 8s 13 18 mph 1026.1mb 55f 55f
6:00 4.5ft 10s 13 16 mph 1026mb 55f 55f